Time;durP1;ratioP1;P1;durP2;ratioP2;P2;SDS_P1;SDS_P2;PMS_P1;PMS_P2;Temp;Humidity;BMP_temperature;BMP_pressure;BME280_temperature;BME280_humidity;BME280_pressure;Samples;Min_cycle;Max_cycle;Signal;HPM_P1;HPM_P2
2022/10/03 00:01:27;;;;;;;19.10;13.47;;;;;;;41.10;33.97;101195.34;6126152;23;20358;-71
2022/10/03 00:04:02;;;;;;;16.30;12.37;;;;;;;41.16;33.51;101192.13;6099784;23;20402;-71
2022/10/03 00:06:57;;;;;;;20.70;13.70;;;;;;;41.09;33.91;101197.25;6099894;23;20854;-73
2022/10/03 00:09:41;;;;;;;17.77;11.93;;;;;;;41.19;33.55;101188.78;6124071;23;20421;-73
2022/10/03 00:12:35;;;;;;;18.80;13.77;;;;;;;41.23;33.54;101183.47;6099819;23;20389;-72
2022/10/03 00:15:17;;;;;;;19.93;12.83;;;;;;;41.22;33.71;101188.13;6055923;23;20402;-72
2022/10/03 00:18:05;;;;;;;22.23;13.00;;;;;;;41.02;33.80;101188.78;6077438;23;20358;-72
2022/10/03 00:20:58;;;;;;;23.60;13.40;;;;;;;41.15;33.33;101182.38;6126023;23;20370;-72
2022/10/03 00:23:44;;;;;;;19.33;13.30;;;;;;;41.32;33.34;101176.94;6126035;23;20434;-72
2022/10/03 00:26:31;;;;;;;17.73;12.03;;;;;;;41.22;33.54;101168.28;6076591;23;20441;-73
2022/10/03 00:29:06;;;;;;;16.83;13.10;;;;;;;40.65;34.44;101161.06;6099609;23;20472;-73
2022/10/03 00:31:58;;;;;;;19.60;12.90;;;;;;;40.94;33.91;101168.59;6099644;23;20746;-73
2022/10/03 00:35:06;;;;;;;22.33;13.47;;;;;;;40.91;33.38;101158.38;6099646;23;20440;-72
2022/10/03 00:37:53;;;;;;;21.83;13.23;;;;;;;40.92;33.51;101161.88;6023204;23;20969;-72
2022/10/03 00:40:54;;;;;;;23.60;14.80;;;;;;;41.12;33.38;101166.66;6124124;23;20437;-73
2022/10/03 00:43:45;;;;;;;26.57;14.80;;;;;;;41.23;33.31;101167.16;6124095;23;20975;-72
2022/10/03 00:46:24;;;;;;;15.93;14.30;;;;;;;41.36;32.57;101171.66;6099822;23;20398;-72
2022/10/03 00:49:26;;;;;;;26.37;15.50;;;;;;;41.22;33.32;101160.13;6099410;23;20410;-71
2022/10/03 00:52:14;;;;;;;20.47;15.20;;;;;;;41.39;33.13;101164.78;6125857;23;20358;-71
2022/10/03 00:55:05;;;;;;;19.47;15.60;;;;;;;41.39;32.92;101156.59;6099633;23;20409;-73
2022/10/03 00:57:55;;;;;;;24.23;16.73;;;;;;;41.42;33.31;101153.22;6099670;23;20439;-73
2022/10/03 01:00:26;;;;;;;18.80;15.53;;;;;;;41.45;32.95;101147.13;6099474;23;20398;-73
2022/10/03 01:02:59;;;;;;;23.10;12.83;;;;;;;41.44;32.78;101140.09;6099594;23;20816;-72
2022/10/03 01:05:53;;;;;;;20.70;13.90;;;;;;;41.40;32.68;101137.22;6099097;23;20437;-72
2022/10/03 01:08:53;;;;;;;20.70;13.90;;;;;;;40.39;34.14;101133.78;6123760;23;20786;-73
2022/10/03 01:11:29;;;;;;;21.67;12.57;;;;;;;40.84;34.01;101128.09;6123907;23;20385;-71
2022/10/03 01:14:09;;;;;;;19.23;14.13;;;;;;;41.02;33.31;101118.84;6099327;23;20488;-71
2022/10/03 01:16:47;;;;;;;21.03;16.57;;;;;;;40.67;34.00;101126.16;6125539;23;20404;-72
2022/10/03 01:19:16;;;;;;;15.50;12.00;;;;;;;40.68;33.71;101113.38;6099451;23;20406;-72
2022/10/03 01:22:07;;;;;;;22.03;15.90;;;;;;;40.73;33.74;101121.38;6125752;23;20362;-71
2022/10/03 01:25:18;;;;;;;16.07;11.77;;;;;;;40.99;33.81;101122.19;6123473;23;20947;-73
2022/10/03 01:30:46;;;;;;;19.50;10.80;;;;;;;41.02;33.74;101112.59;6007943;23;20361;-73
2022/10/03 01:33:41;;;;;;;21.23;12.90;;;;;;;41.00;33.39;101110.19;6072076;23;20512;-73
2022/10/03 01:36:34;;;;;;;16.70;11.87;;;;;;;40.58;33.84;101111.78;6099221;23;20846;-73
2022/10/03 01:39:25;;;;;;;19.60;11.30;;;;;;;40.91;33.76;101119.47;6113696;23;20393;-72
2022/10/03 01:42:19;;;;;;;17.13;10.30;;;;;;;40.89;33.18;101116.25;6099326;23;20408;-72
2022/10/03 01:45:04;;;;;;;14.30;9.80;;;;;;;39.84;35.02;101117.09;6099370;23;20406;-72
2022/10/03 01:47:46;;;;;;;20.07;10.70;;;;;;;40.33;34.28;101115.19;6125915;23;20366;-72
2022/10/03 01:50:21;;;;;;;13.20;10.20;;;;;;;40.89;33.32;101121.69;6099413;23;20396;-72
2022/10/03 01:52:57;;;;;;;23.63;11.70;;;;;;;40.95;33.45;101126.69;6099252;23;20828;-71
2022/10/03 01:55:41;;;;;;;16.10;11.20;;;;;;;40.88;33.37;101128.25;6125756;23;20382;-72
2022/10/03 01:58:21;;;;;;;14.70;10.83;;;;;;;40.53;33.90;101126.31;6100811;23;20378;-72
2022/10/03 02:01:12;;;;;;;17.30;11.40;;;;;;;40.79;33.43;101125.53;6101011;23;20437;-72
2022/10/03 02:04:25;;;;;;;21.60;12.60;;;;;;;40.91;33.46;101131.16;6100856;23;20382;-73
2022/10/03 02:06:52;;;;;;;20.33;12.30;;;;;;;40.58;33.58;101124.53;6050258;23;20744;-72
2022/10/03 02:09:27;;;;;;;12.30;10.30;;;;;;;40.71;33.54;101127.13;6100908;23;20410;-71
2022/10/03 02:12:06;;;;;;;20.20;12.20;;;;;;;40.94;33.80;101130.50;6127308;23;20380;-72
2022/10/03 02:14:53;;;;;;;18.20;11.80;;;;;;;41.03;33.07;101130.53;6127119;23;20417;-72
2022/10/03 02:17:40;;;;;;;17.93;12.60;;;;;;;40.60;33.81;101136.72;6100837;23;20396;-73
2022/10/03 02:20:19;;;;;;;15.23;11.60;;;;;;;40.75;33.58;101130.00;6110763;23;20397;-73
2022/10/03 02:22:52;;;;;;;20.13;11.77;;;;;;;40.60;33.71;101125.84;6100659;23;20382;-72
2022/10/03 02:25:42;;;;;;;16.40;10.63;;;;;;;40.68;33.95;101133.19;6126746;23;20434;-72
2022/10/03 02:28:34;;;;;;;14.50;11.13;;;;;;;40.70;33.65;101130.97;6125276;23;20778;-72
2022/10/03 02:31:28;;;;;;;14.57;9.87;;;;;;;40.88;33.32;101128.25;6100637;23;20898;-72
2022/10/03 02:34:22;;;;;;;14.17;11.50;;;;;;;41.02;33.31;101132.44;6126893;23;20747;-72
2022/10/03 02:37:19;;;;;;;16.70;11.80;;;;;;;41.02;33.30;101139.81;6100530;23;20404;-72
2022/10/03 02:40:09;;;;;;;17.00;10.80;;;;;;;41.13;33.06;101135.63;6100505;23;20382;-72
2022/10/03 02:43:15;;;;;;;21.10;11.17;;;;;;;41.04;32.95;101151.16;6080926;23;20387;-72
2022/10/03 02:46:00;;;;;;;15.10;9.90;;;;;;;41.04;33.46;101151.16;6071076;23;20425;-71
2022/10/03 02:48:48;;;;;;;18.33;11.73;;;;;;;41.14;32.76;101152.78;6100572;23;20382;-71
2022/10/03 02:51:54;;;;;;;14.43;11.00;;;;;;;41.05;33.31;101156.28;6100160;23;20452;-72
2022/10/03 02:54:24;;;;;;;15.00;10.87;;;;;;;40.74;33.76;101150.97;6100240;23;20456;-71
2022/10/03 02:57:27;;;;;;;10.33;9.03;;;;;;;40.98;33.27;101160.59;6100460;23;20387;-71
2022/10/03 03:00:16;;;;;;;21.43;11.90;;;;;;;40.80;33.37;101159.78;6100527;23;20405;-72
2022/10/03 03:02:48;;;;;;;16.40;12.83;;;;;;;41.04;33.53;101154.69;6100320;23;20386;-71
2022/10/03 03:05:48;;;;;;;17.30;10.13;;;;;;;41.07;33.12;101153.25;6100635;23;20436;-72
2022/10/03 03:08:32;;;;;;;21.60;12.80;;;;;;;41.16;33.37;101161.41;6100224;23;20393;-72
2022/10/03 03:11:20;;;;;;;17.20;12.40;;;;;;;41.03;32.85;101168.63;6100097;23;20397;-72
2022/10/03 03:14:17;;;;;;;26.13;12.70;;;;;;;41.15;33.21;101176.94;6100291;23;20436;-72
2022/10/03 03:17:14;;;;;;;15.13;10.60;;;;;;;41.12;32.98;101177.56;6100150;23;20453;-72
2022/10/03 03:19:56;;;;;;;14.37;11.60;;;;;;;41.16;33.15;101175.81;6124671;23;20409;-72
2022/10/03 03:22:40;;;;;;;22.33;14.00;;;;;;;41.05;33.08;101179.97;6100233;23;20460;-72
2022/10/03 03:25:24;;;;;;;15.67;10.90;;;;;;;41.10;32.73;101185.25;6100009;23;20473;-72
2022/10/03 03:28:18;;;;;;;18.27;12.90;;;;;;;41.17;33.04;101182.03;6124653;23;20448;-71
2022/10/03 03:31:02;;;;;;;16.00;12.20;;;;;;;41.18;32.96;101181.72;6100129;23;20375;-72
2022/10/03 03:33:54;;;;;;;22.10;14.30;;;;;;;41.14;32.90;101191.66;6100083;23;20429;-72
2022/10/03 03:36:50;;;;;;;18.23;13.77;;;;;;;41.08;33.40;101179.34;6124596;23;20413;-72
2022/10/03 03:39:49;;;;;;;17.43;12.57;;;;;;;41.14;32.92;101185.44;6100046;23;20413;-72
2022/10/03 03:42:21;;;;;;;20.97;12.60;;;;;;;41.23;33.07;101184.28;6099920;23;20401;-72
2022/10/03 03:45:07;;;;;;;19.40;12.50;;;;;;;41.25;33.12;101182.06;6126418;23;20398;-72
2022/10/03 03:47:53;;;;;;;16.27;11.53;;;;;;;41.27;33.01;101187.97;6066366;23;20414;-72
2022/10/03 03:50:42;;;;;;;20.13;12.43;;;;;;;41.23;32.64;101192.44;6099878;23;20382;-72
2022/10/03 03:53:36;;;;;;;17.20;13.60;;;;;;;41.27;32.61;101198.06;6126179;23;20413;-72
2022/10/03 03:56:10;;;;;;;16.90;13.00;;;;;;;41.36;32.67;101187.97;6099895;23;20480;-72
2022/10/03 03:58:43;;;;;;;24.27;13.63;;;;;;;41.33;32.94;101192.16;6099976;23;20381;-72
2022/10/03 04:01:33;;;;;;;28.03;17.43;;;;;;;41.19;32.85;101193.41;6099747;23;20382;-72
2022/10/03 04:04:21;;;;;;;27.93;15.13;;;;;;;41.01;33.33;101203.50;6099937;23;20377;-71
2022/10/03 04:07:12;;;;;;;21.00;12.47;;;;;;;41.07;33.27;101194.88;6099931;23;20374;-72
2022/10/03 04:10:00;;;;;;;24.53;15.00;;;;;;;41.09;33.34;101200.00;6126107;23;20382;-72
2022/10/03 04:12:50;;;;;;;24.30;13.03;;;;;;;41.08;33.36;101196.47;6124123;23;20389;-71
2022/10/03 04:15:35;;;;;;;18.47;12.97;;;;;;;40.95;33.40;101199.34;6099842;23;20386;-72
2022/10/03 04:21:57;;;;;;;19.63;12.77;;;;;;;40.92;33.51;101195.34;6125760;23;20680;-72
2022/10/03 04:24:42;;;;;;;15.37;12.47;;;;;;;40.62;33.54;101191.59;6099480;23;20450;-72
2022/10/03 04:27:27;;;;;;;21.10;14.40;;;;;;;40.18;34.66;101206.94;6099721;23;20378;-71
2022/10/03 04:30:13;;;;;;;20.33;13.90;;;;;;;40.25;34.46;101204.56;6124103;23;20385;-72
2022/10/03 04:32:57;;;;;;;20.90;12.00;;;;;;;40.40;34.13;101208.00;6097444;23;20741;-72
2022/10/03 04:35:32;;;;;;;20.57;13.70;;;;;;;40.05;34.82;101216.00;6099660;23;20381;-71
2022/10/03 04:38:20;;;;;;;19.50;15.50;;;;;;;40.42;34.26;101206.53;6099531;23;20464;-71
2022/10/03 04:41:08;;;;;;;21.33;16.30;;;;;;;40.58;33.55;101209.66;6123941;23;20732;-73
2022/10/03 04:43:51;;;;;;;30.43;17.90;;;;;;;40.29;34.38;101227.28;6099673;23;20380;-72
2022/10/03 04:46:38;;;;;;;24.70;16.83;;;;;;;40.52;33.70;101225.31;6099815;23;20410;-72
2022/10/03 04:49:38;;;;;;;25.93;20.90;;;;;;;40.47;34.44;101221.91;6099424;23;20445;-72
2022/10/03 04:52:15;;;;;;;26.70;18.60;;;;;;;40.69;33.74;101229.19;6099404;23;20409;-72
2022/10/03 04:55:34;;;;;;;23.43;15.73;;;;;;;40.76;33.83;101240.41;6125922;23;20410;-72
2022/10/03 04:58:15;;;;;;;29.70;15.23;;;;;;;40.35;34.48;101238.03;6076947;23;20413;-72
2022/10/03 05:01:18;;;;;;;22.07;14.73;;;;;;;40.67;33.71;101245.03;6099673;23;20413;-72
2022/10/03 05:04:16;;;;;;;21.23;15.07;;;;;;;40.64;33.70;101242.94;6125703;23;20389;-73
2022/10/03 05:06:57;;;;;;;24.90;15.43;;;;;;;40.47;33.93;101241.78;6024555;23;20409;-72
2022/10/03 05:09:48;;;;;;;21.10;13.33;;;;;;;40.36;34.06;101242.34;6099437;23;20424;-72
2022/10/03 05:12:27;;;;;;;22.60;15.20;;;;;;;40.06;34.41;101236.63;6125919;23;20370;-72
2022/10/03 05:15:28;;;;;;;23.07;14.87;;;;;;;40.50;34.37;101238.41;6099486;23;20874;-72
2022/10/03 05:18:12;;;;;;;19.80;16.67;;;;;;;40.72;33.70;101240.25;6099136;23;20385;-71
2022/10/03 05:21:07;;;;;;;17.23;14.77;;;;;;;40.68;33.37;101236.53;6099477;23;20405;-72
2022/10/03 05:24:14;;;;;;;21.30;14.80;;;;;;;40.61;33.96;101238.94;6099211;23;20386;-73
2022/10/03 05:27:29;;;;;;;24.53;13.33;;;;;;;40.49;34.01;101246.91;6108500;23;20402;-72
2022/10/03 05:30:26;;;;;;;21.13;14.37;;;;;;;40.61;33.66;101243.56;5984156;23;20428;-72
2022/10/03 05:33:23;;;;;;;17.00;14.10;;;;;;;40.57;33.67;101246.09;5985753;23;20553;-72
2022/10/03 05:36:15;;;;;;;20.00;14.23;;;;;;;40.71;33.76;101244.09;6095895;23;20390;-72
2022/10/03 05:38:59;;;;;;;15.03;11.40;;;;;;;40.86;33.44;101242.03;6110160;23;20440;-72
2022/10/03 05:41:36;;;;;;;20.80;11.47;;;;;;;40.85;33.56;101238.50;6101262;23;20370;-71
2022/10/03 05:44:16;;;;;;;20.90;14.00;;;;;;;40.86;32.97;101239.31;6101131;23;20464;-70
2022/10/03 05:47:43;;;;;;;18.40;13.50;;;;;;;40.80;33.34;101242.16;6101666;23;20806;-70
2022/10/03 05:50:12;;;;;;;15.03;11.87;;;;;;;40.90;33.12;101246.56;6127171;23;20381;-69
2022/10/03 05:52:54;;;;;;;17.80;12.63;;;;;;;41.00;32.99;101250.88;6101083;23;20828;-75
2022/10/03 05:55:42;;;;;;;22.23;12.17;;;;;;;40.81;33.29;101262.81;6100957;23;20851;-72
2022/10/03 05:58:14;;;;;;;32.53;19.47;;;;;;;40.91;32.96;101258.22;6125304;23;20449;-72
2022/10/03 06:00:56;;;;;;;18.90;16.10;;;;;;;40.95;33.03;101257.28;6100803;23;20413;-73
2022/10/03 06:03:30;;;;;;;19.37;14.13;;;;;;;40.91;33.06;101259.03;6100721;23;20921;-71
2022/10/03 06:06:10;;;;;;;19.20;12.37;;;;;;;40.87;33.51;101255.31;6100782;23;20394;-70
2022/10/03 06:08:51;;;;;;;16.63;11.73;;;;;;;40.88;33.25;101258.81;6100304;23;20481;-71
2022/10/03 06:11:53;;;;;;;22.57;12.83;;;;;;;40.86;33.27;101259.16;6127086;23;20378;-71
2022/10/03 06:14:56;;;;;;;18.77;11.80;;;;;;;40.25;34.03;101258.13;6127188;23;20401;-71
2022/10/03 06:17:48;;;;;;;19.60;14.50;;;;;;;40.71;33.19;101265.06;6120478;23;20894;-71
2022/10/03 06:20:32;;;;;;;20.27;14.40;;;;;;;40.43;33.92;101267.94;6098717;23;20428;-72
2022/10/03 06:23:35;;;;;;;19.80;17.07;;;;;;;40.43;34.20;101278.03;6123573;23;20472;-72
2022/10/03 06:26:50;;;;;;;19.53;14.00;;;;;;;40.80;33.48;101284.91;6124328;23;20537;-72
2022/10/03 06:29:53;;;;;;;20.10;12.60;;;;;;;41.02;33.22;101289.47;6098937;23;20394;-71
2022/10/03 06:32:45;;;;;;;23.03;13.33;;;;;;;41.21;33.03;101295.41;6099261;23;20759;-72
2022/10/03 06:35:29;;;;;;;23.60;15.53;;;;;;;41.23;32.98;101298.59;6123690;23;20420;-72
2022/10/03 06:38:15;;;;;;;21.10;16.53;;;;;;;41.18;32.92;101304.19;6098822;23;20398;-71
2022/10/03 06:41:12;;;;;;;32.90;16.67;;;;;;;41.30;33.01;101307.09;6098931;23;20407;-70
2022/10/03 06:44:03;;;;;;;24.70;19.83;;;;;;;41.48;32.67;101312.59;6125378;23;20354;-72
2022/10/03 06:46:47;;;;;;;34.37;17.77;;;;;;;41.50;32.43;101315.81;6099372;23;20426;-70
2022/10/03 06:49:45;;;;;;;22.10;14.30;;;;;;;41.48;32.56;101316.09;6099042;23;20414;-70
2022/10/03 06:52:51;;;;;;;21.97;17.43;;;;;;;41.54;32.53;101314.03;6118601;23;20421;-70
2022/10/03 06:55:45;;;;;;;17.57;13.23;;;;;;;41.66;32.64;101327.00;6125548;23;20385;-71
2022/10/03 06:58:21;;;;;;;24.90;16.27;;;;;;;41.77;31.95;101329.09;6123527;23;20394;-71
2022/10/03 07:01:11;;;;;;;21.40;14.07;;;;;;;41.90;32.10;101342.88;6099086;23;20460;-70
2022/10/03 07:04:19;;;;;;;25.60;14.50;;;;;;;41.91;32.15;101341.75;6098819;23;20385;-71
2022/10/03 07:07:09;;;;;;;18.20;12.57;;;;;;;41.96;32.07;101336.94;6057169;23;20886;-71
2022/10/03 07:09:52;;;;;;;21.27;14.80;;;;;;;41.91;32.36;101330.84;6100504;23;20745;-71
2022/10/03 07:12:32;;;;;;;17.33;14.33;;;;;;;41.79;31.99;101342.41;6124959;23;20389;-71
2022/10/03 07:15:16;;;;;;;25.50;14.97;;;;;;;41.59;32.66;101344.63;6100691;23;20854;-71
2022/10/03 07:18:24;;;;;;;18.33;14.53;;;;;;;41.87;32.33;101338.88;6124066;23;20862;-70
2022/10/03 07:21:27;;;;;;;17.43;13.93;;;;;;;41.78;32.23;101343.53;6100208;23;20393;-70
2022/10/03 07:24:14;;;;;;;18.80;13.03;;;;;;;41.63;32.18;101339.34;6124073;23;20394;-70
2022/10/03 07:27:10;;;;;;;14.97;11.90;;;;;;;41.75;32.17;101344.19;6100124;23;20374;-71
2022/10/03 07:29:56;;;;;;;21.97;12.17;;;;;;;41.94;31.98;101352.03;6100145;23;20417;-70
2022/10/03 07:32:53;;;;;;;19.00;13.73;;;;;;;42.06;32.10;101349.44;6099903;23;20487;-70
2022/10/03 07:39:22;;;;;;;16.50;12.47;;;;;;;41.54;32.60;101343.97;6124851;23;20414;-71
2022/10/03 07:41:50;;;;;;;14.50;12.67;;;;;;;41.64;32.29;101351.03;6116157;23;20386;-71
2022/10/03 07:44:43;;;;;;;19.73;13.60;;;;;;;41.52;32.52;101346.22;6097742;23;20381;-71
2022/10/03 07:47:24;;;;;;;18.93;11.50;;;;;;;41.77;32.34;101359.06;6097716;23;20533;-72
2022/10/03 07:50:20;;;;;;;18.23;10.60;;;;;;;41.64;32.55;101362.75;6122094;23;20847;-71
2022/10/03 07:53:27;;;;;;;16.63;11.93;;;;;;;41.42;33.59;101357.44;6122116;23;20426;-71
2022/10/03 07:56:22;;;;;;;23.67;11.10;;;;;;;41.95;32.42;101359.06;6078985;23;20460;-72
2022/10/03 07:59:26;;;;;;;17.77;11.97;;;;;;;42.13;32.19;101361.44;6099797;23;20743;-72
2022/10/03 08:02:04;;;;;;;20.60;11.83;;;;;;;42.30;32.00;101366.09;6097132;23;20462;-72
2022/10/03 08:04:43;;;;;;;18.40;11.67;;;;;;;42.38;31.84;101370.69;6126030;23;20918;-72
2022/10/03 08:07:44;;;;;;;24.30;16.13;;;;;;;42.51;31.58;101379.00;6099942;23;20382;-72
2022/10/03 08:10:48;;;;;;;18.43;10.23;;;;;;;42.71;31.46;101383.75;6126351;23;20382;-72
2022/10/03 08:13:38;;;;;;;24.70;10.23;;;;;;;42.70;31.02;101384.91;6124191;23;20425;-72
2022/10/03 08:16:32;;;;;;;14.43;10.37;;;;;;;42.62;31.25;101385.75;6126220;23;20355;-72
2022/10/03 08:19:26;;;;;;;21.00;11.03;;;;;;;42.91;30.71;101377.59;6099770;23;20385;-71
2022/10/03 08:21:58;;;;;;;16.90;10.37;;;;;;;42.76;30.99;101390.97;6124086;23;20453;-71
2022/10/03 08:24:53;;;;;;;16.63;12.93;;;;;;;42.76;30.64;101386.31;6099649;23;20442;-71
2022/10/03 08:27:53;;;;;;;19.00;10.80;;;;;;;42.84;30.65;101393.66;6126115;23;20398;-71
2022/10/03 08:30:21;;;;;;;18.43;12.23;;;;;;;42.79;30.75;101391.13;6108961;23;20381;-71
2022/10/03 08:33:15;;;;;;;14.70;9.70;;;;;;;42.83;31.08;101388.53;6099655;23;20386;-70
2022/10/03 08:36:18;;;;;;;18.20;8.70;;;;;;;42.87;30.80;101393.00;6099709;23;20386;-71
2022/10/03 08:38:59;;;;;;;13.67;7.77;;;;;;;42.92;30.62;101395.56;6099546;23;20858;-72
2022/10/03 08:42:13;;;;;;;14.50;7.97;;;;;;;42.99;30.50;101394.28;6099450;23;20406;-72
2022/10/03 08:45:01;;;;;;;16.83;8.80;;;;;;;43.08;30.36;101395.03;6099626;23;20398;-72
2022/10/03 08:47:58;;;;;;;16.27;10.57;;;;;;;42.93;30.54;101382.72;6099411;23;20385;-71
2022/10/03 08:50:36;;;;;;;16.47;8.20;;;;;;;43.16;30.25;101383.25;6124019;23;20413;-71
2022/10/03 08:53:38;;;;;;;19.70;8.10;;;;;;;42.74;30.78;101385.06;6099471;23;20429;-71
2022/10/03 08:56:18;;;;;;;13.53;7.70;;;;;;;42.97;30.25;101377.38;6099681;23;20386;-72
2022/10/03 08:59:10;;;;;;;16.77;9.27;;;;;;;42.76;30.37;101380.06;6099708;23;20402;-72
2022/10/03 09:02:03;;;;;;;12.53;7.20;;;;;;;42.80;30.60;101381.81;6077925;23;20878;-71
2022/10/03 09:05:12;;;;;;;12.50;7.20;;;;;;;42.76;30.68;101380.06;6066135;23;20389;-71
2022/10/03 09:08:08;;;;;;;12.07;5.17;;;;;;;42.52;30.62;101386.06;6101547;23;20418;-71
2022/10/03 09:11:09;;;;;;;12.33;7.70;;;;;;;42.69;30.02;101393.41;6082644;23;20389;-71
2022/10/03 09:14:26;;;;;;;8.67;4.33;;;;;;;42.79;29.75;101390.34;6101387;23;20816;-71
2022/10/03 09:17:15;;;;;;;12.70;8.10;;;;;;;42.74;30.10;101385.84;6063232;23;20386;-71
2022/10/03 09:19:57;;;;;;;10.80;5.40;;;;;;;42.72;30.34;101387.28;6084668;23;20870;-71
2022/10/03 09:22:53;;;;;;;13.53;6.90;;;;;;;42.14;31.18;101381.31;6101823;23;20402;-72
2022/10/03 09:25:42;;;;;;;13.23;6.93;;;;;;;42.57;30.99;101377.69;6127641;23;20925;-72
2022/10/03 09:28:26;;;;;;;20.90;7.20;;;;;;;42.48;30.97;101376.91;6059599;23;20476;-72
2022/10/03 09:31:17;;;;;;;14.47;8.60;;;;;;;42.39;31.17;101371.50;6101084;23;20728;-71
2022/10/03 09:34:05;;;;;;;12.20;6.73;;;;;;;42.43;31.76;101368.94;6127554;23;20408;-71
2022/10/03 09:36:51;;;;;;;15.23;7.90;;;;;;;42.76;30.91;101364.50;6102001;23;20382;-70
2022/10/03 09:39:42;;;;;;;11.17;6.70;;;;;;;42.87;30.99;101362.19;6077816;23;20476;-72
2022/10/03 09:42:40;;;;;;;21.77;7.17;;;;;;;42.11;31.67;101354.69;6101112;23;20389;-70
2022/10/03 09:45:11;;;;;;;18.63;10.20;;;;;;;42.75;31.06;101346.53;6127399;23;20485;-70
2022/10/03 09:48:07;;;;;;;11.30;6.37;;;;;;;43.08;30.63;101327.56;6101106;23;20382;-71
2022/10/03 09:50:52;;;;;;;13.33;7.50;;;;;;;42.88;30.80;101322.84;6101102;23;20386;-72
2022/10/03 09:53:37;;;;;;;15.07;9.50;;;;;;;43.09;30.55;101328.38;6100844;23;20903;-72
2022/10/03 09:56:24;;;;;;;16.33;7.27;;;;;;;42.74;31.42;101312.19;6101091;23;20390;-72
2022/10/03 09:59:10;;;;;;;14.67;8.83;;;;;;;42.97;30.66;101309.16;6101110;23;20432;-72
2022/10/03 10:02:07;;;;;;;13.50;8.40;;;;;;;42.42;31.68;101296.41;6100981;23;20881;-72
2022/10/03 10:04:36;;;;;;;12.20;7.73;;;;;;;43.01;30.85;101291.00;6080556;23;20401;-73
2022/10/03 10:07:26;;;;;;;10.87;6.80;;;;;;;42.82;30.90;101291.44;6100994;23;20452;-72
2022/10/03 10:10:17;;;;;;;10.17;6.43;;;;;;;43.01;30.71;101293.75;6100786;23;20421;-72
2022/10/03 10:13:20;;;;;;;17.50;7.03;;;;;;;42.62;31.43;101285.59;6100997;23;20883;-72
2022/10/03 10:16:22;;;;;;;19.60;6.13;;;;;;;42.22;32.39;101268.75;6100564;23;20389;-72
2022/10/03 10:19:18;;;;;;;18.03;8.53;;;;;;;42.85;31.67;101264.28;6126762;23;20377;-72
2022/10/03 10:22:21;;;;;;;14.93;6.40;;;;;;;42.64;31.40;101258.78;6100769;23;20740;-72
2022/10/03 10:25:23;;;;;;;19.03;7.77;;;;;;;42.38;31.70;101267.09;6126827;23;20950;-72
2022/10/03 10:28:02;;;;;;;15.93;5.40;;;;;;;42.69;31.11;101263.25;6100890;23;20468;-72
2022/10/03 10:31:05;;;;;;;7.27;4.30;;;;;;;42.11;31.97;101265.56;6101086;23;20437;-73
2022/10/03 10:34:10;;;;;;;21.30;5.93;;;;;;;42.50;31.63;101271.03;6100645;23;20425;-72
2022/10/03 10:37:00;;;;;;;7.67;5.50;;;;;;;42.70;31.21;101270.31;6127202;23;20364;-72
2022/10/03 10:39:44;;;;;;;7.53;4.37;;;;;;;42.37;31.45;101265.50;6100526;23;20413;-73
2022/10/03 10:42:18;;;;;;;10.20;5.37;;;;;;;42.88;31.27;101257.38;6127030;23;20433;-72
2022/10/03 10:44:44;;;;;;;10.40;5.50;;;;;;;43.07;31.07;101260.47;6126774;23;20394;-73
2022/10/03 10:47:47;;;;;;;7.60;5.50;;;;;;;43.21;30.76;101262.13;6100682;23;20456;-73
2022/10/03 10:50:29;;;;;;;9.07;5.63;;;;;;;42.70;31.27;101264.06;6100578;23;20212;-73
2022/10/03 10:53:22;;;;;;;12.40;5.47;;;;;;;42.49;31.26;101250.34;6100489;23;20417;-72
2022/10/03 10:56:06;;;;;;;9.63;5.00;;;;;;;42.77;31.58;101256.94;6126902;23;20350;-72
2022/10/03 10:58:56;;;;;;;7.90;4.67;;;;;;;42.69;31.44;101265.19;6100328;23;20801;-72
2022/10/03 11:01:59;;;;;;;9.93;5.80;;;;;;;43.21;30.95;101264.84;6100364;23;20489;-73
2022/10/03 11:04:40;;;;;;;11.87;5.00;;;;;;;43.09;31.22;101258.19;6100363;23;20413;-72
2022/10/03 11:07:34;;;;;;;14.50;5.90;;;;;;;43.26;30.94;101246.31;6100393;23;20425;-72
2022/10/03 11:10:00;;;;;;;7.47;5.70;;;;;;;43.36;30.55;101234.22;6126821;23;20389;-74
2022/10/03 11:12:51;;;;;;;10.30;6.20;;;;;;;43.13;31.05;101234.56;6126904;23;20350;-74
2022/10/03 11:15:39;;;;;;;12.23;7.20;;;;;;;43.37;30.49;101228.41;6100272;23;20386;-73
2022/10/03 11:18:51;;;;;;;13.13;7.70;;;;;;;43.19;30.69;101211.38;6126612;23;20764;-72
2022/10/03 11:22:11;;;;;;;14.43;5.30;;;;;;;42.76;31.44;101210.91;6100267;23;20453;-72
2022/10/03 11:24:39;;;;;;;8.30;4.83;;;;;;;42.82;31.19;101215.81;5980173;23;20442;-72
2022/10/03 11:27:27;;;;;;;14.83;4.87;;;;;;;42.95;31.17;101215.88;6115566;23;20421;-72
2022/10/03 11:30:30;;;;;;;8.67;5.80;;;;;;;43.31;30.75;101210.63;6100146;23;20380;-72
2022/10/03 11:33:16;;;;;;;9.40;4.40;;;;;;;43.21;30.90;101213.75;6100027;23;20459;-72
2022/10/03 11:36:18;;;;;;;8.53;5.83;;;;;;;42.87;30.86;101201.19;6075809;23;20398;-72
2022/10/03 11:39:02;;;;;;;17.13;4.93;;;;;;;43.16;30.98;101197.63;6100091;23;20469;-72
2022/10/03 11:41:46;;;;;;;7.60;5.00;;;;;;;43.62;30.17;101190.25;6099925;23;20416;-72
2022/10/03 11:44:23;;;;;;;10.00;5.07;;;;;;;43.51;30.16;101187.16;6100149;23;20381;-72
2022/10/03 11:47:21;;;;;;;14.03;6.00;;;;;;;43.47;30.47;101186.25;6100083;23;20385;-72
2022/10/03 11:50:13;;;;;;;7.20;4.13;;;;;;;43.58;30.22;101176.47;6099601;23;20862;-72
2022/10/03 11:53:24;;;;;;;8.10;5.57;;;;;;;43.25;30.55;101173.75;6099923;23;20895;-73
2022/10/03 11:56:01;;;;;;;10.33;4.60;;;;;;;43.48;30.32;101182.38;6126286;23;20416;-74
2022/10/03 11:58:29;;;;;;;14.30;5.83;;;;;;;43.68;30.12;101183.44;6099799;23;20756;-73
2022/10/03 12:01:27;;;;;;;12.07;4.97;;;;;;;43.62;30.04;101176.59;6099881;23;20461;-72
2022/10/03 12:04:17;;;;;;;13.43;5.37;;;;;;;43.49;30.24;101164.84;6099915;23;20390;-72
2022/10/03 12:10:13;;;;;;;9.23;4.50;;;;;;;43.93;29.56;101160.50;6125794;23;20409;-72
2022/10/03 12:12:44;;;;;;;8.07;4.73;;;;;;;44.11;29.34;101152.06;6094845;23;20386;-72
2022/10/03 12:15:23;;;;;;;9.70;4.57;;;;;;;43.71;29.91;101152.72;6099854;23;20414;-72
2022/10/03 12:18:03;;;;;;;8.90;5.80;;;;;;;43.23;30.65;101139.72;6099658;23;20406;-72
2022/10/03 12:20:48;;;;;;;7.97;5.57;;;;;;;43.57;30.10;101149.50;6099818;23;20481;-72
2022/10/03 12:23:50;;;;;;;7.43;4.60;;;;;;;43.45;30.50;101131.16;6125812;23;20441;-72
2022/10/03 12:26:26;;;;;;;9.27;4.97;;;;;;;43.38;30.64;101133.59;6099476;23;20453;-72
2022/10/03 12:28:55;;;;;;;7.60;4.30;;;;;;;43.66;29.68;101122.88;6099725;23;20420;-72
2022/10/03 12:31:38;;;;;;;19.43;5.67;;;;;;;43.38;30.37;101119.97;6099570;23;20801;-72
2022/10/03 12:34:13;;;;;;;7.77;4.37;;;;;;;43.07;30.56;101113.06;6125956;23;20779;-72
2022/10/03 12:37:22;;;;;;;19.83;5.77;;;;;;;43.45;30.36;101110.09;6126104;23;20382;-72
2022/10/03 12:39:51;;;;;;;12.80;4.87;;;;;;;43.24;30.66;101112.09;6099583;23;20385;-72
2022/10/03 12:42:29;;;;;;;10.53;5.80;;;;;;;43.10;30.74;101095.22;6099705;23;20473;-72
2022/10/03 12:45:11;;;;;;;8.83;3.67;;;;;;;43.64;30.12;101092.34;6099565;23;20754;-72
2022/10/03 12:47:47;;;;;;;11.53;4.77;;;;;;;43.68;29.69;101088.59;6100886;23;20363;-72
2022/10/03 12:50:32;;;;;;;12.27;4.53;;;;;;;43.33;30.36;101087.41;6099611;23;20377;-72
2022/10/03 12:53:18;;;;;;;10.87;4.60;;;;;;;43.36;30.60;101082.06;6099502;23;20433;-73
2022/10/03 12:56:03;;;;;;;10.83;4.23;;;;;;;43.64;30.14;101075.97;6099739;23;20378;-74
2022/10/03 12:58:50;;;;;;;7.00;4.53;;;;;;;43.66;30.14;101058.09;6099591;23;20370;-73
2022/10/03 13:01:34;;;;;;;12.87;5.30;;;;;;;43.58;30.22;101048.06;6099441;23;20410;-73
2022/10/03 13:04:08;;;;;;;10.10;5.50;;;;;;;43.84;29.98;101047.78;6099606;23;20397;-71